• Join FlightAware (Why Join?)
  • Login
  • US Flag 
Trick or treat! (Boo!!) 
08:22AM EDT


 

Airport Tracker/Info


-or-


 

Live Flight TrackerFlight Track Log ✈ N23WJ ✈ 06-Jun-2013 ✈ KFPR - KPDK

Flight Track Log - Related Links

Times and Time Zones

All times are in EDT time to prevent confusion due to time zone crossing. See the N23WJ flight status page for this flight to view local times or setup timezone preferences in your user account.

Time Position Orientation Groundspeed Altitude Reporting Facility
EDT Latitude Longitude Course Direction KTS MPH feet Rate Location/Type
12:53PM 27.4969 -80.4061 297° West 137 158 2,400  Level Miami Center
12:55PM 27.5569 -80.5111 303° West 177 204 26,000 1,920 Climbing Miami Center
12:56PM 27.8091 -80.6591 319° Northwest  Level FlightAware Approximate
12:56PM 27.5939 -80.5381 327° Northwest 177 204 8,200  Level Miami Center
12:57PM 27.8645 -80.7085 322° Northwest  Level FlightAware Approximate
12:57PM 27.6503 -80.5375 North 192 221 8,900  Level Miami Center
12:58PM 27.7233 -80.5422 357° North 239 275 8,900 1,200 Level Miami Center
12:59PM 27.7894 -80.5656 343° North 239 275 11,400 2,280 Climbing Miami Center
01:00PM 27.8428 -80.6022 329° Northwest 215 247 13,500 1,980 Climbing Miami Center
01:01PM 27.8794 -80.6389 319° Northwest 205 236 15,400 1,740 Climbing Miami Center
01:02PM 27.9178 -80.6822 315° West 200 230 17,000 1,620 Climbing Miami Center
01:03PM 27.9606 -80.7283 316° Northwest 195 224 18,700 1,500 Climbing Miami Center
01:04PM 27.9989 -80.7744 313° West 195 224 20,100 1,380 Climbing Miami Center
01:05PM 28.0414 -80.8206 316° Northwest 201 231 21,500 1,200 Climbing Miami Center
01:06PM 28.0861 -80.8669 318° Northwest 201 231 22,600 1,020 Climbing Miami Center
01:08PM 28.1792 -80.9642 317° Northwest 222 255 24,600 900 Climbing Jacksonville Center
01:09PM 28.2258 -81.0103 319° Northwest 222 255 25,300 660 Climbing Jacksonville Center
01:10PM 28.2744 -81.0567 320° Northwest 222 255 26,000 600 Climbing Jacksonville Center
01:11PM 28.3211 -81.1053 317° Northwest 222 255 26,600 480 Climbing Jacksonville Center
01:12PM 28.3742 -81.1608 317° Northwest 227 261 27,000 180 Climbing Jacksonville Center
01:13PM 28.4269 -81.2142 318° Northwest 239 275 27,000  Level Jacksonville Center
01:14PM 28.4819 -81.2725 317° Northwest 254 292 27,000  Level Jacksonville Center
01:15PM 28.5392 -81.3331 317° Northwest 267 307 27,000  Level Jacksonville Center
01:16PM 28.6103 -81.3672 337° Northwest 273 314 27,000  Level Jacksonville Center
01:17PM 28.6900 -81.3875 347° North 273 314 27,000  Level Jacksonville Center
01:18PM 28.7675 -81.4100 346° North 285 328 27,000  Level Jacksonville Center
01:19PM 28.8450 -81.4325 346° North 285 328 27,000  Level Jacksonville Center
01:20PM 28.9183 -81.4597 342° North 285 328 27,000  Level Jacksonville Center
01:21PM 28.9936 -81.4850 344° North 285 328 27,000  Level Jacksonville Center
01:22PM 29.0711 -81.5100 344° North 285 328 27,000  Level Jacksonville Center
01:23PM 29.1486 -81.5325 346° North 285 328 27,000  Level Jacksonville Center
01:24PM 29.2094 -81.5531 344° North 280 322 27,000  Level Jacksonville Center
01:25PM 29.2911 -81.5878 340° North 280 322 27,000  Level Jacksonville Center
01:26PM 29.3667 -81.6131 344° North 285 328 27,000  Level Jacksonville Center
01:27PM 29.4442 -81.6358 346° North 285 328 27,000  Level Jacksonville Center
01:28PM 29.5194 -81.6636 342° North 285 328 27,000  Level Jacksonville Center
01:29PM 29.5969 -81.6889 344° North 285 328 27,000  Level Jacksonville Center
01:30PM 29.6744 -81.7164 343° North 285 328 27,000  Level Jacksonville Center
01:31PM 29.7478 -81.7419 343° North 285 328 27,000  Level Jacksonville Center
01:32PM 29.8253 -81.7650 346° North 285 328 27,000  Level Jacksonville Center
01:33PM 29.9028 -81.7906 344° North 285 328 27,000  Level Jacksonville Center
01:34PM 29.9800 -81.8183 343° North 285 328 27,000  Level Jacksonville Center
01:35PM 30.0597 -81.8389 347° North 285 328 27,000  Level Jacksonville Center
01:36PM 30.1350 -81.8647 343° North 285 328 27,000  Level Jacksonville Center
01:37PM 30.2144 -81.8903 344° North 285 328 27,000  Level Jacksonville Center
01:38PM 30.2900 -81.9206 341° North 285 328 27,000  Level Jacksonville Center
01:39PM 30.3675 -81.9489 342° North 285 328 27,000  Level Jacksonville Center
01:40PM 30.4450 -81.9794 341° North 285 328 27,000  Level Jacksonville Center
01:41PM 30.5244 -82.0100 342° North 291 335 27,000  Level Jacksonville Center
01:42PM 30.6144 -82.0478 340° North 298 343 27,000  Level Jacksonville Center
01:43PM 30.6919 -82.0808 340° North 303 349 27,000  Level Jacksonville Center
01:44PM 30.7736 -82.1139 341° North 303 349 27,000  Level Jacksonville Center
01:45PM 30.8511 -82.1425 342° North 298 343 27,000  Level Jacksonville Center
01:46PM 30.9283 -82.1733 341° North 293 337 27,000  Level Jacksonville Center
01:47PM 31.0058 -82.2067 340° North 293 337 27,000  Level Jacksonville Center
01:48PM 31.0853 -82.2375 342° North 293 337 27,000  Level Jacksonville Center
01:49PM 31.1628 -82.2686 341° North 293 337 27,000  Level Jacksonville Center
01:50PM 31.2403 -82.2997 341° North 293 337 27,000  Level Jacksonville Center
01:51PM 31.3175 -82.3283 342° North 293 337 27,000  Level Jacksonville Center
01:52PM 31.3969 -82.3547 344° North 288 331 27,000  Level Jacksonville Center
01:53PM 31.4764 -82.3858 342° North 288 331 27,000  Level Jacksonville Center
01:54PM 31.5581 -82.4194 341° North 293 337 27,000  Level Jacksonville Center
01:55PM 31.6356 -82.4508 341° North 293 337 27,000  Level Jacksonville Center
01:56PM 31.7150 -82.4822 341° North 293 337 27,000  Level Jacksonville Center
01:57PM 31.7922 -82.5161 340° North 293 337 27,000  Level Jacksonville Center
01:58PM 31.8717 -82.5478 341° North 293 337 27,000  Level Jacksonville Center
01:59PM 31.9361 -82.5753 340° North 290 334 27,000  Level Atlanta Center
02:00PM 32.0139 -82.6083 340° North 295 339 27,000  Level Atlanta Center
02:01PM 32.0933 -82.6367 343° North 295 339 27,000 -60 Level Atlanta Center
02:02PM 32.1711 -82.6722 339° North 290 334 26,900 -360 Descending Atlanta Center
02:03PM 32.2508 -82.7053 341° North 290 334 26,300 -540 Descending Atlanta Center
02:04PM 32.3347 -82.7408 340° North 300 345 25,900 -540 Descending Atlanta Center
02:05PM 32.4043 -82.7653 343° North  Level FlightAware Approximate
02:06PM 32.4981 -82.8050 343° North 306 352 24,800  Level Atlanta Center
02:07PM 32.5800 -82.8458 337° Northwest 306 352 23,300 -1,500 Descending Atlanta Center
02:08PM 32.6494 -82.9164 319° Northwest 312 359 21,800 -1,500 Descending Atlanta Center
02:09PM 32.7169 -82.9869 319° Northwest 326 375 20,400 -1,500 Descending Atlanta Center
02:10PM 32.7842 -83.0581 318° Northwest 326 375 18,900 -1,560 Descending Atlanta Center
02:11PM 32.8453 -83.1217 319° Northwest 313 360 17,300 -1,560 Descending Atlanta Center
02:12PM 32.9061 -83.1778 322° Northwest 303 349 15,800 -1,500 Descending Atlanta Center
02:13PM 32.9608 -83.2317 320° Northwest 278 320 14,400 -1,500 Descending Atlanta Center
02:14PM 33.0175 -83.2931 318° Northwest 263 303 12,900 -1,680 Descending Atlanta Center
02:16PM 33.1414 -83.4186 320° Northwest 302 348 9,400 -1,620 Descending Atlanta Center
02:17PM 33.2022 -83.4803 320° Northwest 292 336 8,200 -720 Descending Atlanta Center
02:18PM 33.2608 -83.5394 320° Northwest 282 325 8,000 -120 Descending Atlanta Center
02:19PM 33.3175 -83.5939 321° Northwest 270 311 8,000  Level Atlanta Center
02:20PM 33.3700 -83.6508 318° Northwest 265 305 8,000 -300 Level Atlanta Center
02:21PM 33.4347 -83.7053 325° Northwest 265 305 7,500 -1,140 Descending Atlanta Center
02:22PM 33.4975 -83.7572 325° Northwest 270 311 5,800 -1,260 Descending Atlanta Center
02:23PM 33.6333 -83.8167 340° North 261 300 3,900 -720 Descending Atlanta TRACON
02:24PM 33.7000 -83.8333 348° North 247 284 3,900  Level Atlanta TRACON
02:25PM 33.7667 -83.8500 348° North 248 285 3,900  Level Atlanta TRACON
02:26PM 33.8333 -83.8667 348° North 247 284 3,900  Level Atlanta TRACON
02:27PM 33.8833 -83.9167 320° Northwest 240 276 4,000  Climbing Atlanta TRACON
02:28PM 33.9333 -83.9500 331° Northwest 238 274 3,900 -60 Descending Atlanta TRACON
02:29PM 33.9833 -84.0000 320° Northwest 207 238 3,900  Level Atlanta TRACON
02:30PM 34.0167 -84.0500 309° West 196 226 3,900  Level Atlanta TRACON
02:31PM 34.0167 -84.1000 270° West 218 251 3,900 -360 Level Atlanta TRACON
02:32PM 33.9833 -84.1667 239° Southwest 210 242 3,200 -660 Descending Atlanta TRACON
02:33PM 33.9500 -84.2167 231° Southwest 217 250 2,600 -600 Descending Atlanta TRACON
02:34PM 33.9167 -84.2833 239° Southwest 220 253 2,000 -600 Descending Atlanta TRACON
02:36PM 33.8756 -84.3020 220° Southwest  Level Estimated
02:43PM 33.8756 -84.3020 220° Southwest  Level Estimated
02:44PM 33.8756 -84.3020 220° Southwest  Level Estimated